createdAt,value
2019-05-16T00:00:05.019Z,8.32
2019-05-16T00:01:05.877Z,8.33
2019-05-16T00:02:05.406Z,8.39
2019-05-16T00:03:07.895Z,8.37
2019-05-16T00:04:05.754Z,8.47
2019-05-16T00:05:08.242Z,8.44
2019-05-16T00:06:08.442Z,8.48
2019-05-16T00:07:08.026Z,8.47
2019-05-16T00:08:11.879Z,8.50
2019-05-16T00:09:08.051Z,8.54
2019-05-16T00:10:08.639Z,8.47
2019-05-16T00:11:08.612Z,8.50
2019-05-16T00:12:08.716Z,8.40
2019-05-16T00:13:08.579Z,8.55
2019-05-16T00:14:08.584Z,8.44
2019-05-16T00:15:09.094Z,8.48
2019-05-16T00:16:08.999Z,8.55
2019-05-16T00:17:08.915Z,8.54
2019-05-16T00:18:08.778Z,8.60
2019-05-16T00:19:09.536Z,8.65
2019-05-16T00:20:09.471Z,8.75
2019-05-16T00:21:10.878Z,8.84
2019-05-16T00:22:09.095Z,8.88
2019-05-16T00:23:09.218Z,8.97
2019-05-16T00:24:09.342Z,9.09
2019-05-16T00:25:10.378Z,9.15
2019-05-16T00:26:09.726Z,9.16
2019-05-16T00:27:10.405Z,9.32
2019-05-16T00:28:10.878Z,9.21
2019-05-16T00:29:10.872Z,9.31
2019-05-16T00:30:10.492Z,9.38
2019-05-16T00:31:10.722Z,9.31
2019-05-16T00:32:10.847Z,9.35
2019-05-16T00:33:10.996Z,9.31
2019-05-16T00:34:11.882Z,9.31
2019-05-16T00:35:11.233Z,9.35
2019-05-16T00:36:11.380Z,9.46
2019-05-16T00:37:11.553Z,9.50
2019-05-16T00:38:11.905Z,9.42
2019-05-16T00:39:11.906Z,9.49
2019-05-16T00:40:45.436Z,9.35
2019-05-16T00:41:12.265Z,9.34
2019-05-16T00:42:12.387Z,9.31
2019-05-16T00:43:12.652Z,9.43
2019-05-16T00:44:12.773Z,9.50
2019-05-16T00:45:13.476Z,9.53
2019-05-16T00:46:14.891Z,9.40
2019-05-16T00:47:13.245Z,9.46
2019-05-16T00:48:13.932Z,9.46
2019-05-16T00:49:13.576Z,9.43
2019-05-16T00:50:13.729Z,9.49
2019-05-16T00:51:13.868Z,9.46
2019-05-16T00:52:14.017Z,9.45
2019-05-16T00:53:14.178Z,9.45
2019-05-16T00:54:14.324Z,9.48
2019-05-16T00:55:14.473Z,9.46
2019-05-16T00:56:14.623Z,9.49
2019-05-16T00:57:14.766Z,9.57
2019-05-16T00:58:14.922Z,9.60
2019-05-16T00:59:15.104Z,9.49
2019-05-16T01:00:15.426Z,9.52
2019-05-16T01:01:18.755Z,9.57
2019-05-16T01:02:15.643Z,9.50
2019-05-16T01:03:15.803Z,9.60
2019-05-16T01:04:18.124Z,9.48
2019-05-16T01:05:16.124Z,9.46
2019-05-16T01:06:21.910Z,9.50
2019-05-16T01:07:18.750Z,9.49
2019-05-16T01:08:18.950Z,9.48
2019-05-16T01:09:18.843Z,9.52
2019-05-16T01:10:18.434Z,9.52
2019-05-16T01:11:18.606Z,9.50
2019-05-16T01:12:18.403Z,9.52
2019-05-16T01:13:18.541Z,9.56
2019-05-16T01:14:18.772Z,9.46
2019-05-16T01:15:18.438Z,9.66
2019-05-16T01:16:19.058Z,9.60
2019-05-16T01:17:18.365Z,9.48
2019-05-16T01:18:19.403Z,9.52
2019-05-16T01:19:18.728Z,9.49
2019-05-16T01:20:19.759Z,9.46
2019-05-16T01:21:18.890Z,9.43
2019-05-16T01:22:19.063Z,9.46
2019-05-16T01:23:52.594Z,9.43
2019-05-16T01:24:19.425Z,9.35
2019-05-16T01:25:19.746Z,9.35
2019-05-16T01:26:20.422Z,9.30
2019-05-16T01:27:20.059Z,9.28
2019-05-16T01:28:20.202Z,9.40
2019-05-16T01:29:20.430Z,9.32
2019-05-16T01:30:20.582Z,9.31
2019-05-16T01:31:20.737Z,9.27
2019-05-16T01:32:20.879Z,9.23
2019-05-16T01:33:21.118Z,9.20
2019-05-16T01:34:21.369Z,9.16
2019-05-16T01:35:21.508Z,9.15
2019-05-16T01:36:33.517Z,9.12
2019-05-16T01:37:23.774Z,9.09
2019-05-16T01:38:22.934Z,9.06
2019-05-16T01:39:22.153Z,9.13
2019-05-16T01:40:23.312Z,9.06
2019-05-16T01:41:55.968Z,9.15
2019-05-16T01:42:57.832Z,9.10
2019-05-16T01:43:22.854Z,9.10
2019-05-16T01:44:23.978Z,9.10
2019-05-16T01:45:23.203Z,9.18
2019-05-16T01:46:23.356Z,9.16
2019-05-16T01:47:23.523Z,9.21
2019-05-16T01:48:23.663Z,9.13
2019-05-16T01:49:23.880Z,9.13
2019-05-16T01:50:24.126Z,9.13
2019-05-16T01:51:24.229Z,9.20
2019-05-16T01:52:24.495Z,9.09
2019-05-16T01:53:24.625Z,9.02
2019-05-16T01:54:24.750Z,8.96
2019-05-16T01:55:24.889Z,8.96
2019-05-16T01:56:25.007Z,8.87
2019-05-16T01:57:25.266Z,8.90
2019-05-16T01:58:25.974Z,8.88
2019-05-16T01:59:25.584Z,8.91
2019-05-16T02:00:35.734Z,8.84
2019-05-16T02:01:28.724Z,8.83
2019-05-16T02:06:21.498Z,8.81
2019-05-16T02:07:21.611Z,8.84
2019-05-16T02:08:21.735Z,8.76
2019-05-16T02:09:21.864Z,8.79
2019-05-16T02:10:22.039Z,8.81
2019-05-16T02:11:23.118Z,8.76
2019-05-16T02:12:22.365Z,8.69
2019-05-16T02:13:58.564Z,8.75
2019-05-16T02:14:24.748Z,8.73
2019-05-16T02:15:24.735Z,8.69
2019-05-16T02:16:24.217Z,8.65
2019-05-16T02:17:24.329Z,8.57
2019-05-16T02:18:24.469Z,8.60
2019-05-16T02:19:24.568Z,8.58
2019-05-16T02:20:25.246Z,8.51
2019-05-16T02:21:24.877Z,8.58
2019-05-16T02:22:25.762Z,8.51
2019-05-16T02:23:25.256Z,8.57
2019-05-16T02:24:28.472Z,8.66
2019-05-16T02:25:27.683Z,8.57
2019-05-16T02:26:28.303Z,8.55
2019-05-16T02:27:28.691Z,8.62
2019-05-16T02:28:30.920Z,8.54
2019-05-16T02:29:29.869Z,8.50
2019-05-16T02:30:27.245Z,8.42
2019-05-16T02:31:26.579Z,8.44
2019-05-16T02:32:26.818Z,8.35
2019-05-16T02:33:27.753Z,8.45
2019-05-16T02:34:30.615Z,8.47
2019-05-16T02:35:27.371Z,8.47
2019-05-16T02:36:27.519Z,8.44
2019-05-16T02:37:33.402Z,8.48
2019-05-16T02:38:31.673Z,8.45
2019-05-16T02:39:30.639Z,8.47
2019-05-16T02:40:31.035Z,8.53
2019-05-16T02:41:31.139Z,8.36
2019-05-16T02:42:31.070Z,8.51
2019-05-16T02:44:03.167Z,8.53
2019-05-16T02:44:31.943Z,8.50
2019-05-16T02:45:32.370Z,8.44
2019-05-16T02:46:30.829Z,8.53
2019-05-16T02:47:34.844Z,8.57
2019-05-16T02:48:31.788Z,8.55
2019-05-16T02:49:34.164Z,8.53
2019-05-16T02:50:31.557Z,8.66
2019-05-16T02:51:31.692Z,8.53
2019-05-16T02:52:31.830Z,8.53
2019-05-16T02:53:31.626Z,8.54
2019-05-16T02:54:31.604Z,8.53
2019-05-16T02:55:32.008Z,8.50
2019-05-16T02:56:31.790Z,8.54
2019-05-16T02:57:32.296Z,8.50
2019-05-16T02:58:31.534Z,8.51
2019-05-16T02:59:31.653Z,8.60
2019-05-16T03:00:31.781Z,8.55
2019-05-16T03:01:31.965Z,8.48
2019-05-16T03:02:32.109Z,8.51
2019-05-16T03:03:32.779Z,8.53
2019-05-16T03:04:33.282Z,8.53
2019-05-16T03:05:32.636Z,8.53
2019-05-16T03:06:32.756Z,8.57
2019-05-16T03:07:41.690Z,8.55
2019-05-16T03:08:35.005Z,8.53
2019-05-16T03:09:34.210Z,8.65
2019-05-16T03:10:33.455Z,8.57
2019-05-16T03:11:33.581Z,8.62
2019-05-16T03:12:33.740Z,8.58
2019-05-16T03:13:34.780Z,8.54
2019-05-16T03:15:10.710Z,8.50
2019-05-16T03:15:34.133Z,8.55
2019-05-16T03:16:34.247Z,8.53
2019-05-16T03:17:34.512Z,8.50
2019-05-16T03:18:34.613Z,8.47
2019-05-16T03:19:35.787Z,8.44
2019-05-16T03:20:35.014Z,8.57
2019-05-16T03:21:35.130Z,8.45
2019-05-16T03:22:35.389Z,8.51
2019-05-16T03:23:35.496Z,8.45
2019-05-16T03:24:36.697Z,8.44
2019-05-16T03:25:35.900Z,8.48
2019-05-16T03:26:36.022Z,8.50
2019-05-16T03:27:36.164Z,8.37
2019-05-16T03:28:36.814Z,8.40
2019-05-16T03:29:36.842Z,8.45
2019-05-16T03:30:36.687Z,8.40
2019-05-16T03:31:36.809Z,8.40
2019-05-16T03:32:36.970Z,8.30
2019-05-16T03:33:48.414Z,8.40
2019-05-16T03:34:43.301Z,8.42
2019-05-16T03:35:44.025Z,8.40
2019-05-16T03:36:43.364Z,8.44
2019-05-16T03:37:54.471Z,8.40
2019-05-16T03:38:41.382Z,8.44
2019-05-16T03:39:40.672Z,8.40
2019-05-16T03:40:41.291Z,8.35
2019-05-16T03:41:41.453Z,8.44
2019-05-16T03:42:41.652Z,8.32
2019-05-16T03:43:41.189Z,8.40
2019-05-16T03:44:41.061Z,8.39
2019-05-16T03:45:41.784Z,8.42
2019-05-16T03:46:41.319Z,8.45
2019-05-16T03:47:42.705Z,8.40
2019-05-16T03:48:41.080Z,8.39
2019-05-16T03:49:42.249Z,8.35
2019-05-16T03:50:41.406Z,8.51
2019-05-16T03:51:41.724Z,8.42
2019-05-16T03:52:43.489Z,8.45
2019-05-16T03:53:41.766Z,8.44
2019-05-16T03:54:42.044Z,8.39
2019-05-16T03:55:42.192Z,8.42
2019-05-16T03:56:41.304Z,8.39
2019-05-16T03:57:42.042Z,8.35
2019-05-16T03:58:41.962Z,8.37
2019-05-16T03:59:41.788Z,8.36
2019-05-16T04:00:45.629Z,8.39
2019-05-16T04:01:43.121Z,8.39
2019-05-16T04:02:45.633Z,8.44
2019-05-16T04:03:42.440Z,8.47
2019-05-16T04:04:42.563Z,8.40
2019-05-16T04:05:42.720Z,8.42
2019-05-16T04:06:42.927Z,8.42
2019-05-16T04:07:43.043Z,8.45
2019-05-16T04:08:43.806Z,8.48
2019-05-16T04:09:44.304Z,8.39
2019-05-16T04:10:43.512Z,8.47
2019-05-16T04:11:43.657Z,8.45
2019-05-16T04:12:43.765Z,8.48
2019-05-16T04:13:43.904Z,8.50
2019-05-16T04:14:44.012Z,8.40
2019-05-16T04:15:44.315Z,8.47
2019-05-16T04:16:44.301Z,8.44
2019-05-16T04:17:44.582Z,8.55
2019-05-16T04:18:44.694Z,8.48
2019-05-16T04:19:45.312Z,8.54
2019-05-16T04:20:45.329Z,8.53
2019-05-16T04:21:45.166Z,8.50
2019-05-16T04:22:45.404Z,8.54
2019-05-16T04:23:45.542Z,8.45
2019-05-16T04:24:45.776Z,8.53
2019-05-16T04:25:45.913Z,8.58
2019-05-16T04:26:46.065Z,8.54
2019-05-16T04:27:46.217Z,8.57
2019-05-16T04:28:46.345Z,8.55
2019-05-16T04:29:46.580Z,8.47
2019-05-16T04:30:50.516Z,8.48
2019-05-16T04:31:46.906Z,8.48
2019-05-16T04:32:47.173Z,8.55
2019-05-16T04:33:47.321Z,8.50
2019-05-16T04:34:47.431Z,8.53
2019-05-16T04:35:47.689Z,8.50
2019-05-16T04:36:47.779Z,8.48
2019-05-16T04:37:51.091Z,8.54
2019-05-16T04:38:51.023Z,8.48
2019-05-16T04:39:50.657Z,8.42
2019-05-16T04:40:51.565Z,8.48
2019-05-16T04:41:50.907Z,8.55
2019-05-16T04:42:51.327Z,8.47
2019-05-16T04:43:50.743Z,8.44
2019-05-16T04:44:51.518Z,8.51
2019-05-16T04:45:52.172Z,8.50
2019-05-16T04:46:51.117Z,8.53
2019-05-16T04:47:51.426Z,8.44
2019-05-16T04:48:51.086Z,8.45
2019-05-16T04:49:52.007Z,8.40
2019-05-16T04:50:52.695Z,8.45
2019-05-16T04:51:51.646Z,8.36
2019-05-16T04:52:52.306Z,8.42
2019-05-16T04:53:51.117Z,8.40
2019-05-16T04:54:52.117Z,8.45
2019-05-16T04:55:52.549Z,8.32
2019-05-16T04:56:51.687Z,8.35
2019-05-16T04:57:52.323Z,8.28
2019-05-16T04:58:51.959Z,8.26
2019-05-16T04:59:52.808Z,8.22
2019-05-16T05:00:52.598Z,8.26
2019-05-16T05:01:52.434Z,8.26
2019-05-16T05:02:52.689Z,8.28
2019-05-16T05:04:08.762Z,8.28
2019-05-16T05:04:55.805Z,8.21
2019-05-16T05:05:53.226Z,8.14
2019-05-16T05:06:55.808Z,8.29
2019-05-16T05:07:54.632Z,8.25
2019-05-16T05:08:58.702Z,8.14
2019-05-16T05:09:56.815Z,8.11
2019-05-16T05:10:54.300Z,8.10
2019-05-16T05:11:54.441Z,8.10
2019-05-16T05:12:54.595Z,8.07
2019-05-16T05:13:54.705Z,7.99
2019-05-16T05:14:54.944Z,8.07
2019-05-16T05:15:56.275Z,8.08
2019-05-16T05:16:55.230Z,7.96
2019-05-16T05:17:55.492Z,7.93
2019-05-16T05:18:55.598Z,8.03
2019-05-16T05:19:55.853Z,8.07
2019-05-16T05:20:55.972Z,8.00
2019-05-16T05:21:56.206Z,8.02
2019-05-16T05:22:56.314Z,7.94
2019-05-16T05:23:56.553Z,7.99
2019-05-16T05:24:56.803Z,8.11
2019-05-16T05:25:56.908Z,8.11
2019-05-16T05:26:59.828Z,8.20
2019-05-16T05:27:57.243Z,8.07
2019-05-16T05:28:59.673Z,8.07
2019-05-16T05:29:57.518Z,8.08
2019-05-16T05:30:59.794Z,8.10
2019-05-16T05:32:03.548Z,8.17
2019-05-16T05:33:00.737Z,8.07
2019-05-16T05:34:00.979Z,8.14
2019-05-16T05:34:59.897Z,8.10
2019-05-16T05:36:01.061Z,8.11
2019-05-16T05:37:00.470Z,8.07
2019-05-16T05:38:00.385Z,8.12
2019-05-16T05:39:11.845Z,8.03
2019-05-16T05:40:01.273Z,8.14
2019-05-16T05:41:00.423Z,8.10
2019-05-16T05:42:00.112Z,8.08
2019-05-16T05:43:00.828Z,8.17
2019-05-16T05:44:00.085Z,8.10
2019-05-16T05:45:00.812Z,8.11
2019-05-16T05:46:00.638Z,8.17
2019-05-16T05:47:01.583Z,8.26
2019-05-16T05:48:01.320Z,8.28
2019-05-16T05:49:01.039Z,8.14
2019-05-16T05:50:01.189Z,8.15
2019-05-16T05:51:01.355Z,8.07
2019-05-16T05:52:01.498Z,8.25
2019-05-16T05:53:01.646Z,8.10
2019-05-16T05:54:01.831Z,8.14
2019-05-16T05:55:02.814Z,8.15
2019-05-16T05:56:02.176Z,8.28
2019-05-16T05:57:02.315Z,8.22
2019-05-16T05:58:02.456Z,8.26
2019-05-16T05:59:02.582Z,8.21
2019-05-16T06:00:02.720Z,8.15
2019-05-16T06:01:02.869Z,8.22
2019-05-16T06:02:03.033Z,8.25
2019-05-16T06:03:03.185Z,8.29
2019-05-16T06:04:03.317Z,8.22
2019-05-16T06:05:03.460Z,8.17
2019-05-16T06:06:03.704Z,8.25
2019-05-16T06:07:03.855Z,8.28
2019-05-16T06:08:04.012Z,8.21
2019-05-16T06:09:04.823Z,8.25
2019-05-16T06:10:04.303Z,8.29
2019-05-16T06:11:04.526Z,8.20
2019-05-16T06:12:07.440Z,8.26
2019-05-16T06:13:04.899Z,8.20
2019-05-16T06:14:05.023Z,8.14
2019-05-16T06:15:08.835Z,8.21
2019-05-16T06:16:06.283Z,8.28
2019-05-16T06:17:05.509Z,8.14
2019-05-16T06:18:05.663Z,8.25
2019-05-16T06:19:06.312Z,8.26
2019-05-16T06:20:05.926Z,8.20
2019-05-16T06:21:06.055Z,8.20
2019-05-16T06:22:06.176Z,8.20
2019-05-16T06:23:06.437Z,8.26
2019-05-16T06:24:07.333Z,8.18
2019-05-16T06:25:06.688Z,8.07
2019-05-16T06:26:06.841Z,8.30
2019-05-16T06:27:07.012Z,8.18
2019-05-16T06:28:07.229Z,8.21
2019-05-16T06:29:10.177Z,8.28
2019-05-16T06:30:07.713Z,8.28
2019-05-16T06:31:13.917Z,8.30
2019-05-16T06:32:10.370Z,8.37
2019-05-16T06:33:10.210Z,8.39
2019-05-16T06:34:15.034Z,8.32
2019-05-16T06:35:10.644Z,8.51
2019-05-16T06:36:11.073Z,8.50
2019-05-16T06:37:10.334Z,8.51
2019-05-16T06:38:09.942Z,8.50
2019-05-16T06:39:11.477Z,8.53
2019-05-16T06:40:11.321Z,8.40
2019-05-16T06:41:10.622Z,8.47
2019-05-16T06:42:10.958Z,8.48
2019-05-16T06:43:10.918Z,8.57
2019-05-16T06:44:11.175Z,8.62
2019-05-16T06:45:10.722Z,8.78
2019-05-16T06:46:11.151Z,8.84
2019-05-16T06:47:19.480Z,8.86
2019-05-16T06:48:13.071Z,8.94
2019-05-16T06:49:11.289Z,9.13
2019-05-16T06:50:11.647Z,9.18
2019-05-16T06:51:11.554Z,9.35
2019-05-16T06:52:11.666Z,9.24
2019-05-16T06:53:11.824Z,9.32
2019-05-16T06:54:11.975Z,9.31
2019-05-16T06:55:12.150Z,9.25
2019-05-16T06:56:12.295Z,9.23
2019-05-16T06:57:12.398Z,9.04
2019-05-16T06:58:12.545Z,9.02
2019-05-16T06:59:12.688Z,9.15
2019-05-16T07:00:13.834Z,9.32
2019-05-16T07:01:13.082Z,9.48
2019-05-16T07:02:26.528Z,9.57
2019-05-16T07:03:16.331Z,9.57
2019-05-16T07:04:14.333Z,9.48
2019-05-16T07:05:13.838Z,9.38
2019-05-16T07:06:36.020Z,9.45
2019-05-16T07:07:16.152Z,9.46
2019-05-16T07:08:14.384Z,9.42
2019-05-16T07:09:14.543Z,9.50
2019-05-16T07:10:14.688Z,9.46
2019-05-16T07:11:14.793Z,9.56
2019-05-16T07:12:15.828Z,9.60
2019-05-16T07:13:15.202Z,9.58
2019-05-16T07:14:15.357Z,9.57
2019-05-16T07:15:15.499Z,9.68
2019-05-16T07:16:15.645Z,9.70
2019-05-16T07:17:15.822Z,9.79
2019-05-16T07:18:16.825Z,9.85
2019-05-16T07:19:16.206Z,9.76
2019-05-16T07:20:16.359Z,9.75
2019-05-16T07:21:17.351Z,9.76
2019-05-16T07:22:16.851Z,9.99
2019-05-16T07:23:16.961Z,10.03
2019-05-16T07:24:17.149Z,10.01
2019-05-16T07:25:17.289Z,10.03
2019-05-16T07:26:17.523Z,10.19
2019-05-16T07:27:17.650Z,10.30
2019-05-16T07:28:17.793Z,10.18
2019-05-16T07:29:20.073Z,10.07
2019-05-16T07:30:19.969Z,10.01
2019-05-16T07:31:19.899Z,9.89
2019-05-16T07:32:19.890Z,9.81
2019-05-16T07:33:21.255Z,9.67
2019-05-16T07:34:20.622Z,9.71
2019-05-16T07:35:20.522Z,9.61
2019-05-16T07:36:20.834Z,9.48
2019-05-16T07:37:20.288Z,9.46
2019-05-16T07:38:20.245Z,9.48
2019-05-16T07:39:20.522Z,9.42
2019-05-16T07:40:26.274Z,9.28
2019-05-16T07:41:22.368Z,9.32
2019-05-16T07:42:20.199Z,9.27
2019-05-16T07:43:21.230Z,9.35
2019-05-16T07:44:20.986Z,9.24
2019-05-16T07:45:22.348Z,9.16
2019-05-16T07:46:20.949Z,9.20
2019-05-16T07:47:20.996Z,9.21
2019-05-16T07:48:21.964Z,9.30
2019-05-16T07:49:22.247Z,9.30
2019-05-16T07:50:21.493Z,9.34
2019-05-16T07:51:21.677Z,9.20
2019-05-16T07:52:21.800Z,9.30
2019-05-16T07:53:21.946Z,9.23
2019-05-16T07:54:22.088Z,9.12
2019-05-16T07:55:22.832Z,9.16
2019-05-16T07:56:22.857Z,9.16
2019-05-16T07:57:23.142Z,9.32
2019-05-16T07:58:23.776Z,9.50
2019-05-16T07:59:23.840Z,9.46
2019-05-16T08:00:43.419Z,9.39
2019-05-16T08:01:25.231Z,9.21
2019-05-16T08:02:23.443Z,9.25
2019-05-16T08:03:24.576Z,9.27
2019-05-16T08:04:23.771Z,9.23
2019-05-16T08:05:23.929Z,9.18
2019-05-16T08:06:24.067Z,9.18
2019-05-16T08:07:24.353Z,9.20
2019-05-16T08:08:24.775Z,9.13
2019-05-16T08:09:24.585Z,9.09
2019-05-16T08:10:37.111Z,9.09
2019-05-16T08:11:25.848Z,9.16
2019-05-16T08:12:26.435Z,9.04
2019-05-16T08:13:26.184Z,9.06
2019-05-16T08:14:25.861Z,8.97
2019-05-16T08:15:25.486Z,9.10
2019-05-16T08:16:25.630Z,9.13
2019-05-16T08:17:25.766Z,9.02
2019-05-16T08:18:25.899Z,9.02
2019-05-16T08:19:26.060Z,8.86
2019-05-16T08:20:26.198Z,8.93
2019-05-16T08:21:27.802Z,8.94
2019-05-16T08:22:30.357Z,8.72
2019-05-16T08:23:26.854Z,8.87
2019-05-16T08:24:26.881Z,8.87
2019-05-16T08:25:27.022Z,8.93
2019-05-16T08:26:27.189Z,9.05
2019-05-16T08:27:30.484Z,9.12
2019-05-16T08:28:30.833Z,9.16
2019-05-16T08:29:31.655Z,9.04
2019-05-16T08:30:31.162Z,9.09
2019-05-16T08:31:31.557Z,8.91
2019-05-16T08:32:31.264Z,9.09
2019-05-16T08:33:32.091Z,9.09
2019-05-16T08:34:32.258Z,9.12
2019-05-16T08:35:31.623Z,9.10
2019-05-16T08:36:31.279Z,9.10
2019-05-16T08:38:31.457Z,9.05
2019-05-16T08:39:31.242Z,9.23
2019-05-16T08:40:31.546Z,9.20
2019-05-16T08:41:31.785Z,9.21
2019-05-16T08:42:32.203Z,9.20
2019-05-16T08:43:31.861Z,9.39
2019-05-16T08:45:32.790Z,9.34
2019-05-16T08:46:32.253Z,9.31
2019-05-16T08:47:32.405Z,9.40
2019-05-16T08:48:32.101Z,9.42
2019-05-16T08:49:32.573Z,9.53
2019-05-16T08:50:05.379Z,9.01
2019-05-16T08:50:34.994Z,9.56
2019-05-16T08:51:33.845Z,9.57
2019-05-16T08:52:32.220Z,9.57
2019-05-16T08:53:32.357Z,9.60
2019-05-16T08:54:32.569Z,9.50
2019-05-16T08:55:32.684Z,9.58
2019-05-16T08:56:32.822Z,9.60
2019-05-16T08:57:33.552Z,9.61
2019-05-16T08:58:33.448Z,9.45
2019-05-16T08:59:34.074Z,9.48
2019-05-16T09:00:34.542Z,9.52
2019-05-16T09:01:35.147Z,9.66
2019-05-16T09:02:36.882Z,9.83
2019-05-16T09:03:35.124Z,9.85
2019-05-16T09:04:35.362Z,9.83
2019-05-16T09:05:34.535Z,9.79
2019-05-16T09:06:35.361Z,9.63
2019-05-16T09:07:34.857Z,9.67
2019-05-16T09:08:35.013Z,9.70
2019-05-16T09:09:44.233Z,9.68
2019-05-16T09:10:58.722Z,9.71
2019-05-16T09:11:44.218Z,9.81
2019-05-16T09:12:37.746Z,9.88
2019-05-16T09:13:37.116Z,10.03
2019-05-16T09:14:39.092Z,10.24
2019-05-16T09:15:38.921Z,10.24
2019-05-16T09:16:37.493Z,10.40
2019-05-16T09:17:38.446Z,10.52
2019-05-16T09:18:30.615Z,9.46
2019-05-16T09:18:41.090Z,10.62
2019-05-16T09:19:39.017Z,10.58
2019-05-16T09:20:38.074Z,10.84
2019-05-16T09:21:38.535Z,11.02
2019-05-16T09:22:37.970Z,11.02
2019-05-16T09:23:38.682Z,11.14
2019-05-16T09:24:38.027Z,11.21
2019-05-16T09:25:38.044Z,10.99
2019-05-16T09:26:38.463Z,11.13
2019-05-16T09:27:40.361Z,11.14
2019-05-16T09:28:39.043Z,11.41
2019-05-16T09:29:39.824Z,11.38
2019-05-16T09:30:38.933Z,11.25
2019-05-16T09:31:39.072Z,11.21
2019-05-16T09:32:42.574Z,11.24
2019-05-16T09:33:40.415Z,11.24
2019-05-16T09:34:39.515Z,11.03
2019-05-16T09:35:39.655Z,11.03
2019-05-16T09:36:39.834Z,11.06
2019-05-16T09:37:39.990Z,11.20
2019-05-16T09:38:40.879Z,11.46
2019-05-16T09:39:40.867Z,11.61
2019-05-16T09:40:41.368Z,11.75
2019-05-16T09:41:54.474Z,12.04
2019-05-16T09:42:42.848Z,12.19
2019-05-16T09:43:40.915Z,12.57
2019-05-16T09:44:41.051Z,12.63
2019-05-16T09:45:41.867Z,12.59
2019-05-16T09:46:41.374Z,12.44
2019-05-16T09:47:41.523Z,12.19
2019-05-16T09:48:41.677Z,11.86
2019-05-16T09:49:41.803Z,11.70
2019-05-16T09:50:42.875Z,11.57
2019-05-16T09:51:42.859Z,11.61
2019-05-16T09:52:42.325Z,11.64
2019-05-16T09:53:42.474Z,11.56
2019-05-16T09:54:42.616Z,11.52
2019-05-16T09:55:42.733Z,11.57
2019-05-16T09:56:42.871Z,11.62
2019-05-16T09:57:43.012Z,11.89
2019-05-16T09:58:43.170Z,11.96
2019-05-16T09:59:43.355Z,11.83
2019-05-16T10:00:43.497Z,11.59
2019-05-16T10:01:44.384Z,11.61
2019-05-16T10:02:43.900Z,11.74
2019-05-16T10:03:47.825Z,11.72
2019-05-16T10:04:47.399Z,11.56
2019-05-16T10:05:46.495Z,11.68
2019-05-16T10:06:44.602Z,11.50
2019-05-16T10:07:46.994Z,11.24
2019-05-16T10:08:46.885Z,11.02
2019-05-16T10:09:49.818Z,10.88
2019-05-16T10:10:47.872Z,10.89
2019-05-16T10:11:49.133Z,10.92
2019-05-16T10:12:46.559Z,11.06
2019-05-16T10:13:47.165Z,10.89
2019-05-16T10:14:47.402Z,10.92
2019-05-16T10:15:47.233Z,11.09
2019-05-16T10:16:47.900Z,11.19
2019-05-16T10:17:47.837Z,11.36
2019-05-16T10:18:47.793Z,11.41
2019-05-16T10:19:47.546Z,11.49
2019-05-16T10:20:48.052Z,11.38
2019-05-16T10:21:47.249Z,11.25
2019-05-16T10:22:50.563Z,11.16
2019-05-16T10:23:48.611Z,11.46
2019-05-16T10:24:47.905Z,11.54
2019-05-16T10:25:48.313Z,11.57
2019-05-16T10:26:53.554Z,11.46
2019-05-16T10:27:51.367Z,11.47
2019-05-16T10:28:48.542Z,11.27
2019-05-16T10:29:48.792Z,11.29
2019-05-16T10:30:50.147Z,11.35
2019-05-16T10:31:53.208Z,11.29
2019-05-16T10:32:50.341Z,11.21
2019-05-16T10:33:49.572Z,11.09
2019-05-16T10:34:49.698Z,11.29
2019-05-16T10:35:49.861Z,11.24
2019-05-16T10:36:50.012Z,11.16
2019-05-16T10:37:50.171Z,11.31
2019-05-16T10:38:50.310Z,11.31
2019-05-16T10:39:50.429Z,11.41
2019-05-16T10:40:50.716Z,11.49
2019-05-16T10:41:50.892Z,11.54
2019-05-16T10:42:51.023Z,11.64
2019-05-16T10:43:51.889Z,11.74
2019-05-16T10:44:51.384Z,11.77
2019-05-16T10:45:53.726Z,11.74
2019-05-16T10:46:52.690Z,11.50
2019-05-16T10:47:52.804Z,11.64
2019-05-16T10:48:52.030Z,11.82
2019-05-16T10:49:52.152Z,11.77
2019-05-16T10:50:52.435Z,11.57
2019-05-16T10:51:52.891Z,11.54
2019-05-16T10:53:20.279Z,11.44
2019-05-16T10:54:08.938Z,11.28
2019-05-16T10:54:59.167Z,11.38
2019-05-16T10:55:57.140Z,11.41
2019-05-16T10:56:53.450Z,11.54
2019-05-16T10:57:53.472Z,11.54
2019-05-16T10:59:26.033Z,11.57
2019-05-16T11:00:06.808Z,11.67
2019-05-16T11:01:24.285Z,11.64
2019-05-16T11:01:59.368Z,11.44
2019-05-16T11:02:58.728Z,11.31
2019-05-16T11:03:56.856Z,11.47
2019-05-16T11:05:02.861Z,11.50
2019-05-16T11:06:05.297Z,11.43
2019-05-16T11:06:57.382Z,11.32
2019-05-16T11:07:57.413Z,10.99
2019-05-16T11:08:57.230Z,10.89
2019-05-16T11:10:02.986Z,10.92
2019-05-16T11:10:58.069Z,10.98
2019-05-16T11:11:57.285Z,11.01
2019-05-16T11:12:59.506Z,11.09
2019-05-16T11:13:57.657Z,11.01
2019-05-16T11:14:56.904Z,11.17
2019-05-16T11:15:57.030Z,11.31
2019-05-16T11:16:58.127Z,11.20
2019-05-16T11:18:00.150Z,11.07
2019-05-16T11:19:13.790Z,10.89
2019-05-16T11:19:59.727Z,10.83
2019-05-16T11:20:58.359Z,10.80
2019-05-16T11:21:59.179Z,10.78
2019-05-16T11:22:58.401Z,10.89
2019-05-16T11:23:58.517Z,11.01
2019-05-16T11:24:58.641Z,11.24
2019-05-16T11:25:58.767Z,11.34
2019-05-16T11:26:59.002Z,11.24
2019-05-16T11:27:59.144Z,11.24
2019-05-16T11:28:59.301Z,11.01
2019-05-16T11:29:59.437Z,10.76
2019-05-16T11:31:03.592Z,10.66
2019-05-16T11:32:00.799Z,10.56
2019-05-16T11:33:00.053Z,10.42
2019-05-16T11:34:00.218Z,10.46
2019-05-16T11:35:00.332Z,10.42
2019-05-16T11:36:01.389Z,10.39
2019-05-16T11:37:00.620Z,10.37
2019-05-16T11:38:00.758Z,10.56
2019-05-16T11:39:01.831Z,10.37
2019-05-16T11:40:02.076Z,10.28
2019-05-16T11:41:01.303Z,10.37
2019-05-16T11:42:01.423Z,10.42
2019-05-16T11:43:09.303Z,10.56
2019-05-16T11:44:06.414Z,10.58
2019-05-16T11:45:02.062Z,10.47
2019-05-16T11:46:02.118Z,10.44
2019-05-16T11:47:02.262Z,10.40
2019-05-16T11:48:02.398Z,10.46
2019-05-16T11:49:03.405Z,10.46
2019-05-16T11:50:02.882Z,10.71
2019-05-16T11:51:03.009Z,10.60
2019-05-16T11:52:03.181Z,10.63
2019-05-16T11:53:03.289Z,10.59
2019-05-16T11:54:03.526Z,10.55
2019-05-16T11:55:03.776Z,10.60
2019-05-16T11:56:03.898Z,10.59
2019-05-16T11:57:06.644Z,10.65
2019-05-16T11:58:06.615Z,10.68
2019-05-16T11:59:07.617Z,10.60
2019-05-16T12:00:04.669Z,10.56
2019-05-16T12:01:07.299Z,10.53
2019-05-16T12:02:05.020Z,10.65
2019-05-16T12:03:05.424Z,10.62
2019-05-16T12:04:07.790Z,10.70
2019-05-16T12:05:05.536Z,10.65
2019-05-16T12:06:10.858Z,10.74
2019-05-16T12:07:07.718Z,10.77
2019-05-16T12:08:07.850Z,10.81
2019-05-16T12:09:07.134Z,10.73
2019-05-16T12:10:07.568Z,10.63
2019-05-16T12:11:07.558Z,10.68
2019-05-16T12:12:08.718Z,10.59
2019-05-16T12:13:23.816Z,10.60
2019-05-16T12:14:08.075Z,10.65
2019-05-16T12:15:08.316Z,10.56
2019-05-16T12:16:07.907Z,10.63
2019-05-16T12:17:09.369Z,10.47
2019-05-16T12:18:08.764Z,10.51
2019-05-16T12:19:09.410Z,10.52
2019-05-16T12:20:08.138Z,10.47
2019-05-16T12:21:08.410Z,10.43
2019-05-16T12:22:08.401Z,10.34
2019-05-16T12:23:08.515Z,10.24
2019-05-16T12:24:08.659Z,10.14
2019-05-16T12:25:08.800Z,10.19
2019-05-16T12:26:08.921Z,10.10
2019-05-16T12:27:09.215Z,10.07
2019-05-16T12:28:09.383Z,10.03
2019-05-16T12:29:09.506Z,10.10
2019-05-16T12:30:13.482Z,10.14
2019-05-16T12:31:10.869Z,10.17
2019-05-16T12:32:10.143Z,10.19
2019-05-16T12:33:10.273Z,10.17
2019-05-16T12:34:10.411Z,10.28
2019-05-16T12:35:11.411Z,10.39
2019-05-16T12:36:10.794Z,10.34
2019-05-16T12:37:11.414Z,10.43
2019-05-16T12:38:11.903Z,10.40
2019-05-16T12:39:11.393Z,10.32
2019-05-16T12:40:11.523Z,10.14
2019-05-16T12:41:11.673Z,10.06
2019-05-16T12:42:11.829Z,9.96
2019-05-16T12:43:11.996Z,9.82
2019-05-16T12:44:12.929Z,9.83
2019-05-16T12:45:12.300Z,9.79
2019-05-16T12:46:13.424Z,9.81
2019-05-16T12:47:12.684Z,9.82
2019-05-16T12:48:16.237Z,9.78
2019-05-16T12:49:12.951Z,9.78
2019-05-16T12:50:13.115Z,9.79
2019-05-16T12:51:13.275Z,9.82
2019-05-16T12:52:13.437Z,10.00
2019-05-16T12:53:13.593Z,10.03
2019-05-16T12:54:13.746Z,10.15
2019-05-16T12:55:16.433Z,9.97
2019-05-16T12:56:17.514Z,9.85
2019-05-16T12:57:14.346Z,9.99
2019-05-16T12:58:19.421Z,9.94
2019-05-16T12:59:20.467Z,9.89
2019-05-16T13:00:19.031Z,10.03
2019-05-16T13:01:19.705Z,10.12
2019-05-16T13:02:17.231Z,10.14
2019-05-16T13:03:15.431Z,10.15
2019-05-16T13:04:19.045Z,10.10
2019-05-16T13:05:17.853Z,10.07
2019-05-16T13:06:17.426Z,10.00
2019-05-16T13:07:17.316Z,10.15
2019-05-16T13:08:17.456Z,10.00
2019-05-16T13:09:18.711Z,10.07
2019-05-16T13:10:17.931Z,9.94
2019-05-16T13:11:17.784Z,9.94
2019-05-16T13:12:17.993Z,9.86
2019-05-16T13:13:17.901Z,9.94
2019-05-16T13:14:18.421Z,9.81
2019-05-16T13:15:18.291Z,9.93
2019-05-16T13:16:18.794Z,9.83